createdAt,value
2023-02-28T00:01:32.616Z,102660.00
2023-02-28T00:03:59.536Z,102658.00
2023-02-28T00:06:27.539Z,102657.00
2023-02-28T00:08:54.832Z,102660.00
2023-02-28T00:11:21.649Z,102660.00
2023-02-28T00:13:49.245Z,102664.00
2023-02-28T00:16:21.380Z,102655.00
2023-02-28T00:18:48.829Z,102652.00
2023-02-28T00:21:17.398Z,102651.00
2023-02-28T00:23:45.166Z,102662.00
2023-02-28T00:26:12.818Z,102662.00
2023-02-28T00:28:39.589Z,102658.00
2023-02-28T00:31:06.577Z,102660.00
2023-02-28T00:33:33.556Z,102662.00
2023-02-28T00:36:12.580Z,102658.00
2023-02-28T00:38:40.959Z,102658.00
2023-02-28T00:41:08.731Z,102663.00
2023-02-28T00:43:38.630Z,102665.00
2023-02-28T00:46:05.919Z,102666.00
2023-02-28T00:48:33.524Z,102671.00
2023-02-28T00:51:01.133Z,102656.00
2023-02-28T00:53:28.718Z,102658.00
2023-02-28T00:55:55.499Z,102662.00
2023-02-28T00:58:22.576Z,102658.00
2023-02-28T01:00:50.150Z,102668.00
2023-02-28T01:03:19.246Z,102670.00
2023-02-28T01:05:47.387Z,102666.00
2023-02-28T01:08:15.352Z,102658.00
2023-02-28T01:10:43.347Z,102666.00
2023-02-28T01:13:10.535Z,102668.00
2023-02-28T01:15:37.777Z,102662.00
2023-02-28T01:18:04.545Z,102652.00
2023-02-28T01:20:31.786Z,102656.00
2023-02-28T01:22:58.617Z,102654.00
2023-02-28T01:25:25.474Z,102645.00
2023-02-28T01:27:52.294Z,102654.00
2023-02-28T01:30:19.095Z,102651.00
2023-02-28T01:32:45.870Z,102648.00
2023-02-28T01:35:12.741Z,102655.00
2023-02-28T01:37:39.627Z,102647.00
2023-02-28T01:40:07.354Z,102648.00
2023-02-28T01:42:34.117Z,102650.00
2023-02-28T01:45:18.934Z,102638.00
2023-02-28T01:47:48.881Z,102643.00
2023-02-28T01:50:25.920Z,102643.00
2023-02-28T01:52:58.111Z,102639.00
2023-02-28T01:55:29.599Z,102646.00
2023-02-28T01:58:01.163Z,102642.00
2023-02-28T02:00:30.669Z,102642.00
2023-02-28T02:03:05.762Z,102653.00
2023-02-28T02:05:33.070Z,102648.00
2023-02-28T02:08:08.844Z,102647.00
2023-02-28T02:10:51.256Z,102654.00
2023-02-28T02:13:56.624Z,102641.00
2023-02-28T02:16:56.447Z,102631.00
2023-02-28T02:20:04.894Z,102645.00
2023-02-28T02:23:04.522Z,102646.00
2023-02-28T02:26:13.126Z,102645.00
2023-02-28T02:29:24.016Z,102639.00
2023-02-28T02:32:17.804Z,102638.00
2023-02-28T02:34:59.549Z,102638.00
2023-02-28T02:37:32.131Z,102644.00
2023-02-28T02:40:16.561Z,102645.00
2023-02-28T02:43:07.940Z,102639.00
2023-02-28T02:45:37.617Z,102648.00
2023-02-28T02:48:10.126Z,102648.00
2023-02-28T02:50:44.098Z,102653.00
2023-02-28T02:53:13.190Z,102631.00
2023-02-28T02:55:47.126Z,102632.00
2023-02-28T02:58:19.927Z,102649.00
2023-02-28T03:00:54.614Z,102648.00
2023-02-28T03:03:30.153Z,102654.00
2023-02-28T03:06:00.223Z,102645.00
2023-02-28T03:08:30.278Z,102652.00
2023-02-28T03:11:09.707Z,102645.00
2023-02-28T03:14:25.471Z,102655.00
2023-02-28T03:17:20.135Z,102651.00
2023-02-28T03:20:01.893Z,102652.00
2023-02-28T03:22:53.199Z,102654.00
2023-02-28T03:25:44.126Z,102653.00
2023-02-28T03:28:38.059Z,102660.00
2023-02-28T03:31:17.925Z,102653.00
2023-02-28T03:34:23.121Z,102654.00
2023-02-28T03:36:56.119Z,102666.00
2023-02-28T03:39:39.076Z,102654.00
2023-02-28T03:42:18.632Z,102660.00
2023-02-28T03:44:57.035Z,102659.00
2023-02-28T03:47:57.530Z,102662.00
2023-02-28T03:50:37.408Z,102663.00
2023-02-28T03:53:24.703Z,102657.00
2023-02-28T03:56:02.238Z,102664.00
2023-02-28T03:58:56.601Z,102655.00
2023-02-28T04:01:33.398Z,102662.00
2023-02-28T04:04:00.415Z,102665.00
2023-02-28T04:06:28.142Z,102667.00
2023-02-28T04:08:55.463Z,102666.00
2023-02-28T04:11:36.250Z,102663.00
2023-02-28T04:14:08.715Z,102671.00
2023-02-28T04:16:40.653Z,102663.00
2023-02-28T04:19:10.159Z,102659.00
2023-02-28T04:21:40.716Z,102662.00
2023-02-28T04:24:14.868Z,102662.00
2023-02-28T04:26:45.564Z,102668.00
2023-02-28T04:29:15.785Z,102669.00
2023-02-28T04:31:42.603Z,102679.00
2023-02-28T04:34:09.421Z,102675.00
2023-02-28T04:36:36.374Z,102668.00
2023-02-28T04:39:03.309Z,102664.00
2023-02-28T04:41:32.415Z,102678.00
2023-02-28T04:43:59.927Z,102672.00
2023-02-28T04:46:26.713Z,102682.00
2023-02-28T04:48:55.059Z,102667.00
2023-02-28T04:51:21.929Z,102670.00
2023-02-28T04:53:49.446Z,102671.00
2023-02-28T04:56:18.859Z,102675.00
2023-02-28T04:58:46.179Z,102678.00
2023-02-28T05:01:23.396Z,102682.00
2023-02-28T05:03:51.205Z,102680.00
2023-02-28T05:06:18.944Z,102683.00
2023-02-28T05:08:45.950Z,102690.00
2023-02-28T05:11:24.882Z,102682.00
2023-02-28T05:13:53.064Z,102674.00
2023-02-28T05:16:20.852Z,102688.00
2023-02-28T05:18:48.497Z,102688.00
2023-02-28T05:21:27.469Z,102688.00
2023-02-28T05:23:55.246Z,102694.00
2023-02-28T05:26:22.707Z,102701.00
2023-02-28T05:28:49.841Z,102698.00
2023-02-28T05:31:16.784Z,102691.00
2023-02-28T05:33:43.628Z,102691.00
2023-02-28T05:36:10.543Z,102691.00
2023-02-28T05:38:38.871Z,102698.00
2023-02-28T05:41:11.104Z,102693.00
2023-02-28T05:43:38.894Z,102703.00
2023-02-28T05:46:12.203Z,102702.00
2023-02-28T05:48:41.462Z,102699.00
2023-02-28T05:51:09.973Z,102703.00
2023-02-28T05:53:37.349Z,102707.00
2023-02-28T05:56:05.164Z,102712.00
2023-02-28T05:58:32.258Z,102712.00
2023-02-28T06:01:00.867Z,102706.00
2023-02-28T06:03:28.367Z,102715.00
2023-02-28T06:05:55.442Z,102715.00
2023-02-28T06:08:22.554Z,102707.00
2023-02-28T06:10:49.274Z,102708.00
2023-02-28T06:13:16.181Z,102712.00
2023-02-28T06:15:43.083Z,102715.00
2023-02-28T06:18:09.894Z,102715.00
2023-02-28T06:20:37.251Z,102713.00
2023-02-28T06:23:04.330Z,102721.00
2023-02-28T06:25:31.113Z,102717.00
2023-02-28T06:27:58.146Z,102717.00
2023-02-28T06:30:27.685Z,102719.00
2023-02-28T06:32:55.699Z,102718.00
2023-02-28T06:35:23.037Z,102726.00
2023-02-28T06:37:49.948Z,102727.00
2023-02-28T06:40:17.009Z,102733.00
2023-02-28T06:42:44.365Z,102736.00
2023-02-28T06:45:12.797Z,102745.00
2023-02-28T06:47:41.781Z,102745.00
2023-02-28T06:50:13.741Z,102742.00
2023-02-28T06:52:40.472Z,102735.00
2023-02-28T06:55:09.175Z,102747.00
2023-02-28T06:57:37.663Z,102745.00
2023-02-28T07:00:14.259Z,102741.00
2023-02-28T07:02:41.081Z,102750.00
2023-02-28T07:05:08.336Z,102747.00
2023-02-28T07:07:37.299Z,102749.00
2023-02-28T07:10:04.847Z,102740.00
2023-02-28T07:12:31.556Z,102761.00
2023-02-28T07:14:58.278Z,102751.00
2023-02-28T07:17:25.108Z,102757.00
2023-02-28T07:19:51.910Z,102751.00
2023-02-28T07:22:18.672Z,102756.00
2023-02-28T07:24:45.426Z,102749.00
2023-02-28T07:27:12.263Z,102762.00
2023-02-28T07:29:39.274Z,102757.00
2023-02-28T07:32:06.122Z,102756.00
2023-02-28T07:34:32.911Z,102756.00
2023-02-28T07:36:59.910Z,102762.00
2023-02-28T07:39:26.743Z,102761.00
2023-02-28T07:41:53.710Z,102763.00
2023-02-28T07:44:20.505Z,102760.00
2023-02-28T07:46:47.300Z,102762.00
2023-02-28T07:49:14.086Z,102750.00
2023-02-28T07:51:41.051Z,102771.00
2023-02-28T07:54:07.818Z,102762.00
2023-02-28T07:56:34.619Z,102759.00
2023-02-28T07:59:02.660Z,102770.00
2023-02-28T08:01:29.919Z,102759.00
2023-02-28T08:03:58.032Z,102766.00
2023-02-28T08:06:27.232Z,102771.00
2023-02-28T08:08:54.696Z,102772.00
2023-02-28T08:11:21.515Z,102766.00
2023-02-28T08:13:48.323Z,102772.00
2023-02-28T08:16:18.630Z,102771.00
2023-02-28T08:18:45.655Z,102769.00
2023-02-28T08:21:12.806Z,102771.00
2023-02-28T08:23:39.980Z,102763.00
2023-02-28T08:26:07.427Z,102761.00
2023-02-28T08:28:34.912Z,102761.00
2023-02-28T08:31:09.103Z,102768.00
2023-02-28T08:33:36.192Z,102771.00
2023-02-28T08:36:03.072Z,102778.00
2023-02-28T08:38:30.119Z,102773.00
2023-02-28T08:41:03.808Z,102775.00
2023-02-28T08:43:30.699Z,102767.00
2023-02-28T08:45:57.919Z,102765.00
2023-02-28T08:48:30.382Z,102771.00
2023-02-28T08:51:14.378Z,102771.00
2023-02-28T08:53:41.620Z,102771.00
2023-02-28T08:56:12.527Z,102767.00
2023-02-28T08:58:40.036Z,102782.00
2023-02-28T09:01:16.492Z,102773.00
2023-02-28T09:03:44.226Z,102780.00
2023-02-28T09:06:12.468Z,102776.00
2023-02-28T09:08:39.692Z,102769.00
2023-02-28T09:11:06.798Z,102768.00
2023-02-28T09:13:34.315Z,102769.00
2023-02-28T09:16:04.306Z,102779.00
2023-02-28T09:18:32.061Z,102768.00
2023-02-28T09:20:58.966Z,102772.00
2023-02-28T09:23:26.159Z,102776.00
2023-02-28T09:25:55.935Z,102772.00
2023-02-28T09:28:23.675Z,102767.00
2023-02-28T09:30:53.995Z,102771.00
2023-02-28T09:33:22.520Z,102773.00
2023-02-28T09:35:50.472Z,102771.00
2023-02-28T09:38:18.408Z,102766.00
2023-02-28T09:41:02.448Z,102764.00
2023-02-28T09:43:42.674Z,102761.00
2023-02-28T09:46:35.940Z,102760.00
2023-02-28T09:49:12.672Z,102777.00
2023-02-28T09:52:02.002Z,102778.00
2023-02-28T09:54:33.556Z,102772.00
2023-02-28T09:57:14.638Z,102776.00
2023-02-28T10:00:09.212Z,102784.00
2023-02-28T10:03:00.107Z,102778.00
2023-02-28T10:05:50.985Z,102778.00
2023-02-28T10:08:52.961Z,102787.00
2023-02-28T10:11:21.737Z,102779.00
2023-02-28T10:14:02.553Z,102772.00
2023-02-28T10:16:47.508Z,102771.00
2023-02-28T10:19:33.487Z,102767.00
2023-02-28T10:22:20.019Z,102767.00
2023-02-28T10:24:52.476Z,102766.00
2023-02-28T10:27:29.730Z,102772.00
2023-02-28T10:30:02.935Z,102769.00
2023-02-28T10:32:36.049Z,102772.00
2023-02-28T10:35:27.757Z,102766.00
2023-02-28T10:38:01.841Z,102770.00
2023-02-28T10:40:36.648Z,102766.00
2023-02-28T10:43:18.745Z,102777.00
2023-02-28T10:46:05.040Z,102775.00
2023-02-28T10:49:00.250Z,102780.00
2023-02-28T10:51:40.794Z,102777.00
2023-02-28T10:54:19.037Z,102766.00
2023-02-28T10:56:45.994Z,102761.00
2023-02-28T10:59:15.640Z,102769.00
2023-02-28T11:01:49.907Z,102763.00
2023-02-28T11:04:30.297Z,102759.00
2023-02-28T11:07:04.231Z,102739.00
2023-02-28T11:09:39.585Z,102748.00
2023-02-28T11:12:50.820Z,102747.00
2023-02-28T11:15:21.808Z,102749.00
2023-02-28T11:18:48.996Z,102746.00
2023-02-28T11:21:41.184Z,102741.00
2023-02-28T11:24:32.924Z,102735.00
2023-02-28T11:26:59.713Z,102736.00
2023-02-28T11:29:33.273Z,102736.00
2023-02-28T11:32:25.278Z,102732.00
2023-02-28T11:35:18.468Z,102721.00
2023-02-28T11:37:46.871Z,102734.00
2023-02-28T11:40:22.748Z,102724.00
2023-02-28T11:43:34.355Z,102741.00
2023-02-28T11:46:42.140Z,102727.00
2023-02-28T11:49:32.316Z,102728.00
2023-02-28T11:52:45.451Z,102734.00
2023-02-28T11:55:34.169Z,102734.00
2023-02-28T11:58:24.144Z,102734.00
2023-02-28T12:01:25.818Z,102733.00
2023-02-28T12:04:25.856Z,102729.00
2023-02-28T12:07:29.012Z,102723.00
2023-02-28T12:10:38.411Z,102724.00
2023-02-28T12:13:35.403Z,102724.00
2023-02-28T12:16:32.880Z,102728.00
2023-02-28T12:19:14.271Z,102722.00
2023-02-28T12:22:14.724Z,102725.00
2023-02-28T12:25:17.837Z,102718.00
2023-02-28T12:27:48.926Z,102714.00
2023-02-28T12:30:45.163Z,102710.00
2023-02-28T12:33:18.997Z,102709.00
2023-02-28T12:35:56.901Z,102701.00
2023-02-28T12:38:35.318Z,102694.00
2023-02-28T12:41:09.390Z,102680.00
2023-02-28T12:43:49.832Z,102687.00
2023-02-28T12:46:51.721Z,102668.00
2023-02-28T12:49:42.253Z,102667.00
2023-02-28T12:52:14.429Z,102665.00
2023-02-28T12:54:54.158Z,102665.00
2023-02-28T12:57:42.402Z,102659.00
2023-02-28T13:00:18.653Z,102654.00
2023-02-28T13:03:29.371Z,102642.00
2023-02-28T13:06:34.728Z,102646.00
2023-02-28T13:09:10.700Z,102641.00
2023-02-28T13:11:52.743Z,102631.00
2023-02-28T13:14:24.137Z,102642.00
2023-02-28T13:17:12.098Z,102634.00
2023-02-28T13:20:04.772Z,102645.00
2023-02-28T13:22:45.668Z,102642.00
2023-02-28T13:25:42.919Z,102646.00
2023-02-28T13:28:35.284Z,102643.00
2023-02-28T13:31:05.903Z,102642.00
2023-02-28T13:34:01.400Z,102648.00
2023-02-28T13:36:33.362Z,102646.00
2023-02-28T13:39:36.442Z,102639.00
2023-02-28T13:42:35.216Z,102639.00
2023-02-28T13:45:04.928Z,102631.00
2023-02-28T13:47:53.337Z,102633.00
2023-02-28T13:50:27.289Z,102625.00
2023-02-28T13:53:17.393Z,102619.00
2023-02-28T13:55:54.124Z,102619.00
2023-02-28T13:58:49.071Z,102622.00
2023-02-28T14:01:27.272Z,102619.00
2023-02-28T14:04:16.435Z,102605.00
2023-02-28T14:06:52.445Z,102610.00
2023-02-28T14:09:35.059Z,102618.00
2023-02-28T14:13:06.039Z,102616.00
2023-02-28T14:15:49.345Z,102610.00
2023-02-28T14:18:25.731Z,102626.00
2023-02-28T14:21:00.756Z,102624.00
2023-02-28T14:24:17.692Z,102615.00
2023-02-28T14:26:59.266Z,102613.00
2023-02-28T14:29:50.974Z,102621.00
2023-02-28T14:32:36.499Z,102623.00
2023-02-28T14:35:30.892Z,102613.00
2023-02-28T14:37:58.375Z,102608.00
2023-02-28T14:40:33.282Z,102615.00
2023-02-28T14:43:06.811Z,102617.00
2023-02-28T14:45:38.345Z,102607.00
2023-02-28T14:48:10.793Z,102609.00
2023-02-28T14:50:38.775Z,102608.00
2023-02-28T14:53:19.138Z,102608.00
2023-02-28T14:55:48.699Z,102602.00
2023-02-28T14:58:28.075Z,102613.00
2023-02-28T15:00:59.250Z,102602.00
2023-02-28T15:03:32.591Z,102594.00
2023-02-28T15:06:03.847Z,102606.00
2023-02-28T15:08:35.988Z,102605.00
2023-02-28T15:11:22.222Z,102597.00
2023-02-28T15:13:57.362Z,102592.00
2023-02-28T15:16:38.339Z,102602.00
2023-02-28T15:19:20.904Z,102604.00
2023-02-28T15:21:55.421Z,102596.00
2023-02-28T15:24:36.650Z,102595.00
2023-02-28T15:27:11.955Z,102595.00
2023-02-28T15:29:50.195Z,102591.00
2023-02-28T15:32:40.737Z,102591.00
2023-02-28T15:35:26.013Z,102587.00
2023-02-28T15:37:58.396Z,102593.00
2023-02-28T15:40:36.403Z,102587.00
2023-02-28T15:43:18.899Z,102584.00
2023-02-28T15:45:53.712Z,102584.00
2023-02-28T15:48:36.888Z,102597.00
2023-02-28T15:51:18.450Z,102588.00
2023-02-28T15:53:54.325Z,102585.00
2023-02-28T15:56:27.402Z,102588.00
2023-02-28T15:59:08.049Z,102582.00
2023-02-28T16:01:38.681Z,102584.00
2023-02-28T16:04:18.518Z,102594.00
2023-02-28T16:07:06.781Z,102592.00
2023-02-28T16:09:35.316Z,102587.00
2023-02-28T16:12:04.518Z,102592.00
2023-02-28T16:14:32.482Z,102602.00
2023-02-28T16:17:22.032Z,102595.00
2023-02-28T16:19:49.186Z,102587.00
2023-02-28T16:22:16.596Z,102590.00
2023-02-28T16:24:43.402Z,102597.00
2023-02-28T16:27:36.099Z,102595.00
2023-02-28T16:30:06.098Z,102602.00
2023-02-28T16:32:37.284Z,102594.00
2023-02-28T16:35:04.664Z,102588.00
2023-02-28T16:37:31.614Z,102603.00
2023-02-28T16:39:58.331Z,102593.00
2023-02-28T16:42:29.496Z,102592.00
2023-02-28T16:44:56.711Z,102588.00
2023-02-28T16:47:23.505Z,102587.00
2023-02-28T16:49:50.550Z,102596.00
2023-02-28T16:52:17.298Z,102606.00
2023-02-28T16:54:44.009Z,102602.00
2023-02-28T16:57:28.741Z,102600.00
2023-02-28T16:59:55.473Z,102605.00
2023-02-28T17:02:22.493Z,102602.00
2023-02-28T17:04:50.350Z,102604.00
2023-02-28T17:07:17.972Z,102592.00
2023-02-28T17:09:46.760Z,102600.00
2023-02-28T17:12:13.734Z,102601.00
2023-02-28T17:14:40.501Z,102612.00
2023-02-28T17:17:08.476Z,102598.00
2023-02-28T17:19:36.983Z,102608.00
2023-02-28T17:22:04.186Z,102604.00
2023-02-28T17:24:31.646Z,102614.00
2023-02-28T17:26:59.149Z,102617.00
2023-02-28T17:29:26.344Z,102619.00
2023-02-28T17:31:53.957Z,102618.00
2023-02-28T17:34:21.167Z,102629.00
2023-02-28T17:36:50.872Z,102627.00
2023-02-28T17:39:25.367Z,102623.00
2023-02-28T17:41:56.624Z,102614.00
2023-02-28T17:44:25.097Z,102628.00
2023-02-28T17:46:54.356Z,102619.00
2023-02-28T17:49:21.544Z,102612.00
2023-02-28T17:51:49.172Z,102619.00
2023-02-28T17:54:18.230Z,102620.00
2023-02-28T17:56:45.899Z,102625.00
2023-02-28T17:59:13.654Z,102628.00
2023-02-28T18:01:40.651Z,102613.00
2023-02-28T18:04:07.633Z,102617.00
2023-02-28T18:06:51.611Z,102610.00
2023-02-28T18:09:22.932Z,102625.00
2023-02-28T18:11:55.532Z,102620.00
2023-02-28T18:14:26.227Z,102616.00
2023-02-28T18:16:55.922Z,102615.00
2023-02-28T18:19:23.289Z,102620.00
2023-02-28T18:21:53.457Z,102627.00
2023-02-28T18:24:23.033Z,102624.00
2023-02-28T18:26:51.417Z,102630.00
2023-02-28T18:29:23.994Z,102648.00
2023-02-28T18:31:51.491Z,102638.00
2023-02-28T18:34:18.933Z,102639.00
2023-02-28T18:36:47.171Z,102647.00
2023-02-28T18:39:15.322Z,102648.00
2023-02-28T18:41:42.159Z,102653.00
2023-02-28T18:44:18.934Z,102648.00
2023-02-28T18:46:46.215Z,102650.00
2023-02-28T18:49:13.115Z,102649.00
2023-02-28T18:51:44.839Z,102660.00
2023-02-28T18:54:13.520Z,102668.00
2023-02-28T18:56:40.277Z,102661.00
2023-02-28T18:59:07.087Z,102653.00
2023-02-28T19:01:34.586Z,102652.00
2023-02-28T19:04:03.661Z,102650.00
2023-02-28T19:06:32.914Z,102654.00
2023-02-28T19:09:04.184Z,102647.00
2023-02-28T19:11:31.828Z,102643.00
2023-02-28T19:13:58.761Z,102632.00
2023-02-28T19:16:26.004Z,102634.00
2023-02-28T19:18:53.861Z,102633.00
2023-02-28T19:21:23.832Z,102627.00
2023-02-28T19:23:50.606Z,102633.00
2023-02-28T19:26:23.595Z,102651.00
2023-02-28T19:28:50.663Z,102647.00
2023-02-28T19:31:22.279Z,102646.00
2023-02-28T19:33:49.680Z,102646.00
2023-02-28T19:36:16.517Z,102651.00
2023-02-28T19:38:44.778Z,102644.00
2023-02-28T19:41:14.260Z,102650.00
2023-02-28T19:43:41.240Z,102654.00
2023-02-28T19:46:09.612Z,102646.00
2023-02-28T19:48:36.941Z,102644.00
2023-02-28T19:51:09.505Z,102640.00
2023-02-28T19:53:38.815Z,102645.00
2023-02-28T19:56:06.293Z,102638.00
2023-02-28T19:58:34.327Z,102646.00
2023-02-28T20:01:09.914Z,102641.00
2023-02-28T20:03:37.060Z,102654.00
2023-02-28T20:06:10.788Z,102634.00
2023-02-28T20:08:38.526Z,102650.00
2023-02-28T20:11:12.365Z,102646.00
2023-02-28T20:13:39.900Z,102643.00
2023-02-28T20:16:10.560Z,102648.00
2023-02-28T20:18:39.355Z,102646.00
2023-02-28T20:21:09.322Z,102647.00
2023-02-28T20:23:38.961Z,102654.00
2023-02-28T20:26:06.147Z,102649.00
2023-02-28T20:28:33.062Z,102649.00
2023-02-28T20:31:00.639Z,102641.00
2023-02-28T20:33:28.184Z,102653.00
2023-02-28T20:36:05.560Z,102645.00
2023-02-28T20:38:32.389Z,102647.00
2023-02-28T20:41:00.551Z,102633.00
2023-02-28T20:43:28.368Z,102626.00
2023-02-28T20:45:58.811Z,102628.00
2023-02-28T20:48:25.621Z,102621.00
2023-02-28T20:50:55.392Z,102617.00
2023-02-28T20:53:24.228Z,102621.00
2023-02-28T20:56:02.469Z,102626.00
2023-02-28T20:58:35.900Z,102626.00
2023-02-28T21:01:17.438Z,102618.00
2023-02-28T21:03:51.043Z,102616.00
2023-02-28T21:06:20.828Z,102623.00
2023-02-28T21:08:47.789Z,102634.00
2023-02-28T21:11:44.690Z,102634.00
2023-02-28T21:14:18.055Z,102622.00
2023-02-28T21:16:46.996Z,102614.00
2023-02-28T21:19:14.034Z,102613.00
2023-02-28T21:21:43.951Z,102624.00
2023-02-28T21:24:17.463Z,102622.00
2023-02-28T21:26:47.049Z,102626.00
2023-02-28T21:29:14.080Z,102629.00
2023-02-28T21:31:41.146Z,102634.00
2023-02-28T21:34:09.650Z,102623.00
2023-02-28T21:36:41.055Z,102625.00
2023-02-28T21:39:17.400Z,102614.00
2023-02-28T21:41:44.416Z,102626.00
2023-02-28T21:44:19.498Z,102621.00
2023-02-28T21:46:49.644Z,102625.00
2023-02-28T21:49:17.353Z,102620.00
2023-02-28T21:51:44.582Z,102627.00
2023-02-28T21:54:11.984Z,102633.00
2023-02-28T21:56:39.477Z,102633.00
2023-02-28T21:59:09.650Z,102617.00
2023-02-28T22:01:44.030Z,102625.00
2023-02-28T22:04:20.970Z,102626.00
2023-02-28T22:06:52.810Z,102628.00
2023-02-28T22:09:20.518Z,102631.00
2023-02-28T22:11:47.621Z,102626.00
2023-02-28T22:14:14.821Z,102626.00
2023-02-28T22:16:57.557Z,102623.00
2023-02-28T22:19:25.201Z,102629.00
2023-02-28T22:21:53.823Z,102640.00
2023-02-28T22:24:24.100Z,102646.00
2023-02-28T22:26:52.141Z,102654.00
2023-02-28T22:29:18.891Z,102644.00
2023-02-28T22:31:45.754Z,102650.00
2023-02-28T22:34:13.035Z,102654.00
2023-02-28T22:36:43.622Z,102644.00
2023-02-28T22:39:10.780Z,102645.00
2023-02-28T22:41:37.942Z,102646.00
2023-02-28T22:44:07.070Z,102647.00
2023-02-28T22:46:35.913Z,102645.00
2023-02-28T22:49:05.764Z,102653.00
2023-02-28T22:51:32.557Z,102647.00
2023-02-28T22:53:59.653Z,102663.00
2023-02-28T22:56:29.949Z,102650.00
2023-02-28T22:59:00.051Z,102661.00
2023-02-28T23:01:31.488Z,102655.00
2023-02-28T23:03:59.637Z,102663.00
2023-02-28T23:06:31.800Z,102660.00
2023-02-28T23:09:06.441Z,102664.00
2023-02-28T23:11:39.970Z,102674.00
2023-02-28T23:14:07.863Z,102677.00
2023-02-28T23:16:41.552Z,102670.00
2023-02-28T23:19:21.466Z,102679.00
2023-02-28T23:21:49.645Z,102680.00
2023-02-28T23:24:21.556Z,102670.00
2023-02-28T23:26:52.606Z,102678.00
2023-02-28T23:29:21.565Z,102687.00
2023-02-28T23:31:50.088Z,102686.00
2023-02-28T23:34:24.866Z,102697.00
2023-02-28T23:36:52.714Z,102684.00
2023-02-28T23:39:21.170Z,102676.00
2023-02-28T23:41:48.441Z,102666.00
2023-02-28T23:44:16.950Z,102675.00
2023-02-28T23:46:50.725Z,102668.00
2023-02-28T23:49:19.981Z,102659.00
2023-02-28T23:51:51.532Z,102654.00
2023-02-28T23:54:18.941Z,102649.00
2023-02-28T23:56:46.077Z,102654.00
2023-02-28T23:59:12.856Z,102649.00
